sensor_id;sensor_type;location;lat;lon;timestamp;P1;durP1;ratioP1;P2;durP2;ratioP2
49043;SDS011;34860;48.066;14.124;2023-12-07T00:01:59;7.10;;;2.65;;
49043;SDS011;34860;48.066;14.124;2023-12-07T00:04:47;6.28;;;2.42;;
49043;SDS011;34860;48.066;14.124;2023-12-07T00:07:37;3.80;;;2.40;;
49043;SDS011;34860;48.066;14.124;2023-12-07T00:10:25;5.45;;;3.00;;
49043;SDS011;34860;48.066;14.124;2023-12-07T00:13:15;4.68;;;2.92;;
49043;SDS011;34860;48.066;14.124;2023-12-07T00:16:04;6.30;;;2.63;;
49043;SDS011;34860;48.066;14.124;2023-12-07T00:18:57;6.30;;;3.63;;
49043;SDS011;34860;48.066;14.124;2023-12-07T00:21:45;7.60;;;2.53;;
49043;SDS011;34860;48.066;14.124;2023-12-07T00:24:33;6.38;;;2.45;;
49043;SDS011;34860;48.066;14.124;2023-12-07T00:27:21;4.07;;;2.38;;
49043;SDS011;34860;48.066;14.124;2023-12-07T00:30:12;5.50;;;2.35;;
49043;SDS011;34860;48.066;14.124;2023-12-07T00:33:00;7.22;;;2.58;;
49043;SDS011;34860;48.066;14.124;2023-12-07T00:35:49;3.13;;;1.95;;
49043;SDS011;34860;48.066;14.124;2023-12-07T00:38:41;8.45;;;3.10;;
49043;SDS011;34860;48.066;14.124;2023-12-07T00:41:29;3.25;;;2.25;;
49043;SDS011;34860;48.066;14.124;2023-12-07T00:44:23;4.57;;;2.15;;
49043;SDS011;34860;48.066;14.124;2023-12-07T00:47:13;4.93;;;2.50;;
49043;SDS011;34860;48.066;14.124;2023-12-07T00:50:05;4.40;;;2.50;;
49043;SDS011;34860;48.066;14.124;2023-12-07T00:52:54;4.30;;;2.22;;
49043;SDS011;34860;48.066;14.124;2023-12-07T00:55:42;5.75;;;2.92;;
49043;SDS011;34860;48.066;14.124;2023-12-07T00:58:30;4.13;;;2.65;;
49043;SDS011;34860;48.066;14.124;2023-12-07T01:01:19;5.25;;;3.15;;
49043;SDS011;34860;48.066;14.124;2023-12-07T01:04:08;4.40;;;2.33;;
49043;SDS011;34860;48.066;14.124;2023-12-07T01:06:57;6.85;;;2.95;;
49043;SDS011;34860;48.066;14.124;2023-12-07T01:09:45;5.93;;;2.70;;
49043;SDS011;34860;48.066;14.124;2023-12-07T01:12:33;4.97;;;2.42;;
49043;SDS011;34860;48.066;14.124;2023-12-07T01:15:23;4.32;;;1.98;;
49043;SDS011;34860;48.066;14.124;2023-12-07T01:18:11;5.47;;;2.67;;
49043;SDS011;34860;48.066;14.124;2023-12-07T01:21:04;6.13;;;2.25;;
49043;SDS011;34860;48.066;14.124;2023-12-07T01:23:56;3.88;;;2.47;;
49043;SDS011;34860;48.066;14.124;2023-12-07T01:26:47;6.18;;;3.08;;
49043;SDS011;34860;48.066;14.124;2023-12-07T01:29:35;4.88;;;2.72;;
49043;SDS011;34860;48.066;14.124;2023-12-07T01:32:23;6.88;;;3.25;;
49043;SDS011;34860;48.066;14.124;2023-12-07T01:35:11;4.15;;;2.38;;
49043;SDS011;34860;48.066;14.124;2023-12-07T01:38:04;3.88;;;2.10;;
49043;SDS011;34860;48.066;14.124;2023-12-07T01:40:56;6.75;;;2.95;;
49043;SDS011;34860;48.066;14.124;2023-12-07T01:43:44;4.30;;;2.45;;
49043;SDS011;34860;48.066;14.124;2023-12-07T01:46:35;6.95;;;2.75;;
49043;SDS011;34860;48.066;14.124;2023-12-07T01:49:26;3.25;;;2.13;;
49043;SDS011;34860;48.066;14.124;2023-12-07T01:52:15;6.78;;;2.72;;
49043;SDS011;34860;48.066;14.124;2023-12-07T01:55:06;6.50;;;3.30;;
49043;SDS011;34860;48.066;14.124;2023-12-07T01:58:00;3.33;;;1.58;;
49043;SDS011;34860;48.066;14.124;2023-12-07T02:00:59;11.20;;;3.28;;
49043;SDS011;34860;48.066;14.124;2023-12-07T02:03:49;7.10;;;2.72;;
49043;SDS011;34860;48.066;14.124;2023-12-07T02:06:39;4.05;;;3.03;;
49043;SDS011;34860;48.066;14.124;2023-12-07T02:09:27;4.70;;;2.08;;
49043;SDS011;34860;48.066;14.124;2023-12-07T02:12:17;4.20;;;1.80;;
49043;SDS011;34860;48.066;14.124;2023-12-07T02:15:06;4.07;;;2.53;;
49043;SDS011;34860;48.066;14.124;2023-12-07T02:17:57;7.32;;;3.20;;
49043;SDS011;34860;48.066;14.124;2023-12-07T02:20:54;7.55;;;2.95;;
49043;SDS011;34860;48.066;14.124;2023-12-07T02:23:48;6.75;;;2.65;;
49043;SDS011;34860;48.066;14.124;2023-12-07T02:26:52;4.10;;;2.15;;
49043;SDS011;34860;48.066;14.124;2023-12-07T02:29:40;6.20;;;2.17;;
49043;SDS011;34860;48.066;14.124;2023-12-07T02:32:28;4.70;;;2.83;;
49043;SDS011;34860;48.066;14.124;2023-12-07T02:35:16;8.07;;;2.67;;
49043;SDS011;34860;48.066;14.124;2023-12-07T02:38:04;4.57;;;2.80;;
49043;SDS011;34860;48.066;14.124;2023-12-07T02:40:55;8.02;;;2.47;;
49043;SDS011;34860;48.066;14.124;2023-12-07T02:43:46;4.20;;;2.20;;
49043;SDS011;34860;48.066;14.124;2023-12-07T02:46:35;5.65;;;2.70;;
49043;SDS011;34860;48.066;14.124;2023-12-07T02:49:25;9.02;;;3.10;;
49043;SDS011;34860;48.066;14.124;2023-12-07T02:52:16;7.03;;;2.92;;
49043;SDS011;34860;48.066;14.124;2023-12-07T02:55:04;8.05;;;2.20;;
49043;SDS011;34860;48.066;14.124;2023-12-07T02:57:53;5.60;;;2.83;;
49043;SDS011;34860;48.066;14.124;2023-12-07T03:00:42;6.82;;;2.78;;
49043;SDS011;34860;48.066;14.124;2023-12-07T03:03:31;5.25;;;2.58;;
49043;SDS011;34860;48.066;14.124;2023-12-07T03:06:20;8.65;;;3.17;;
49043;SDS011;34860;48.066;14.124;2023-12-07T03:09:08;4.55;;;2.35;;
49043;SDS011;34860;48.066;14.124;2023-12-07T03:11:56;6.22;;;2.78;;
49043;SDS011;34860;48.066;14.124;2023-12-07T03:14:44;4.90;;;3.33;;
49043;SDS011;34860;48.066;14.124;2023-12-07T03:17:34;4.68;;;2.38;;
49043;SDS011;34860;48.066;14.124;2023-12-07T03:20:25;4.78;;;2.15;;
49043;SDS011;34860;48.066;14.124;2023-12-07T03:23:15;4.60;;;2.13;;
49043;SDS011;34860;48.066;14.124;2023-12-07T03:26:04;6.57;;;3.30;;
49043;SDS011;34860;48.066;14.124;2023-12-07T03:28:52;8.45;;;3.03;;
49043;SDS011;34860;48.066;14.124;2023-12-07T03:31:40;4.18;;;2.25;;
49043;SDS011;34860;48.066;14.124;2023-12-07T03:34:30;6.07;;;3.35;;
49043;SDS011;34860;48.066;14.124;2023-12-07T03:37:18;5.65;;;2.38;;
49043;SDS011;34860;48.066;14.124;2023-12-07T03:40:10;4.72;;;2.70;;
49043;SDS011;34860;48.066;14.124;2023-12-07T03:42:59;11.77;;;4.70;;
49043;SDS011;34860;48.066;14.124;2023-12-07T03:45:51;5.57;;;3.25;;
49043;SDS011;34860;48.066;14.124;2023-12-07T03:48:39;6.57;;;2.97;;
49043;SDS011;34860;48.066;14.124;2023-12-07T03:51:28;5.07;;;2.35;;
49043;SDS011;34860;48.066;14.124;2023-12-07T03:54:16;7.03;;;3.50;;
49043;SDS011;34860;48.066;14.124;2023-12-07T03:57:05;7.95;;;3.28;;
49043;SDS011;34860;48.066;14.124;2023-12-07T03:59:53;5.65;;;2.72;;
49043;SDS011;34860;48.066;14.124;2023-12-07T04:02:41;7.70;;;3.08;;
49043;SDS011;34860;48.066;14.124;2023-12-07T04:05:37;6.50;;;1.88;;
49043;SDS011;34860;48.066;14.124;2023-12-07T04:08:27;6.07;;;2.97;;
49043;SDS011;34860;48.066;14.124;2023-12-07T04:11:18;6.65;;;2.63;;
49043;SDS011;34860;48.066;14.124;2023-12-07T04:14:06;4.95;;;2.30;;
49043;SDS011;34860;48.066;14.124;2023-12-07T04:17:00;8.07;;;3.33;;
49043;SDS011;34860;48.066;14.124;2023-12-07T04:19:48;5.63;;;2.80;;
49043;SDS011;34860;48.066;14.124;2023-12-07T04:22:44;4.43;;;2.70;;
49043;SDS011;34860;48.066;14.124;2023-12-07T04:25:36;4.35;;;2.10;;
49043;SDS011;34860;48.066;14.124;2023-12-07T04:28:27;5.68;;;2.65;;
49043;SDS011;34860;48.066;14.124;2023-12-07T04:31:15;7.57;;;2.88;;
49043;SDS011;34860;48.066;14.124;2023-12-07T04:34:03;7.88;;;2.22;;
49043;SDS011;34860;48.066;14.124;2023-12-07T04:36:51;7.90;;;3.35;;
49043;SDS011;34860;48.066;14.124;2023-12-07T04:39:44;3.15;;;1.67;;
49043;SDS011;34860;48.066;14.124;2023-12-07T04:42:33;8.13;;;3.42;;
49043;SDS011;34860;48.066;14.124;2023-12-07T04:45:22;11.57;;;3.33;;
49043;SDS011;34860;48.066;14.124;2023-12-07T04:48:10;3.67;;;2.28;;
49043;SDS011;34860;48.066;14.124;2023-12-07T04:50:58;11.30;;;4.20;;
49043;SDS011;34860;48.066;14.124;2023-12-07T04:53:47;9.52;;;3.10;;
49043;SDS011;34860;48.066;14.124;2023-12-07T04:56:35;5.32;;;2.63;;
49043;SDS011;34860;48.066;14.124;2023-12-07T04:59:25;4.68;;;2.50;;
49043;SDS011;34860;48.066;14.124;2023-12-07T05:02:13;7.85;;;3.58;;
49043;SDS011;34860;48.066;14.124;2023-12-07T05:05:03;5.78;;;2.88;;
49043;SDS011;34860;48.066;14.124;2023-12-07T05:07:51;5.43;;;2.22;;
49043;SDS011;34860;48.066;14.124;2023-12-07T05:10:39;9.00;;;3.70;;
49043;SDS011;34860;48.066;14.124;2023-12-07T05:13:27;10.00;;;4.13;;
49043;SDS011;34860;48.066;14.124;2023-12-07T05:16:17;6.97;;;3.45;;
49043;SDS011;34860;48.066;14.124;2023-12-07T05:19:10;5.47;;;2.90;;
49043;SDS011;34860;48.066;14.124;2023-12-07T05:21:59;12.05;;;3.47;;
49043;SDS011;34860;48.066;14.124;2023-12-07T05:24:47;8.38;;;3.97;;
49043;SDS011;34860;48.066;14.124;2023-12-07T05:27:35;8.45;;;3.75;;
49043;SDS011;34860;48.066;14.124;2023-12-07T05:30:23;8.75;;;3.63;;
49043;SDS011;34860;48.066;14.124;2023-12-07T05:33:14;6.53;;;3.15;;
49043;SDS011;34860;48.066;14.124;2023-12-07T05:36:03;8.60;;;2.78;;
49043;SDS011;34860;48.066;14.124;2023-12-07T05:38:52;5.68;;;2.88;;
49043;SDS011;34860;48.066;14.124;2023-12-07T05:41:40;8.77;;;4.22;;
49043;SDS011;34860;48.066;14.124;2023-12-07T05:44:29;4.80;;;2.13;;
49043;SDS011;34860;48.066;14.124;2023-12-07T05:47:18;5.95;;;2.95;;
49043;SDS011;34860;48.066;14.124;2023-12-07T05:50:09;6.90;;;2.75;;
49043;SDS011;34860;48.066;14.124;2023-12-07T05:52:57;4.10;;;2.35;;
49043;SDS011;34860;48.066;14.124;2023-12-07T05:55:46;5.75;;;2.53;;
49043;SDS011;34860;48.066;14.124;2023-12-07T05:58:34;10.98;;;3.90;;
49043;SDS011;34860;48.066;14.124;2023-12-07T06:01:23;5.75;;;2.65;;
49043;SDS011;34860;48.066;14.124;2023-12-07T06:04:12;14.65;;;2.97;;
49043;SDS011;34860;48.066;14.124;2023-12-07T06:07:01;3.70;;;2.30;;
49043;SDS011;34860;48.066;14.124;2023-12-07T06:09:49;7.82;;;2.50;;
49043;SDS011;34860;48.066;14.124;2023-12-07T06:12:38;6.57;;;3.65;;
49043;SDS011;34860;48.066;14.124;2023-12-07T06:15:26;13.98;;;3.83;;
49043;SDS011;34860;48.066;14.124;2023-12-07T06:18:14;11.27;;;4.05;;
49043;SDS011;34860;48.066;14.124;2023-12-07T06:21:03;9.82;;;3.17;;
49043;SDS011;34860;48.066;14.124;2023-12-07T06:23:54;12.23;;;5.65;;
49043;SDS011;34860;48.066;14.124;2023-12-07T06:26:42;8.98;;;4.78;;
49043;SDS011;34860;48.066;14.124;2023-12-07T06:29:30;8.10;;;3.70;;
49043;SDS011;34860;48.066;14.124;2023-12-07T06:32:18;7.15;;;2.95;;
49043;SDS011;34860;48.066;14.124;2023-12-07T06:38:37;8.27;;;3.38;;
49043;SDS011;34860;48.066;14.124;2023-12-07T06:41:27;6.57;;;4.03;;
49043;SDS011;34860;48.066;14.124;2023-12-07T06:44:15;9.85;;;3.58;;
49043;SDS011;34860;48.066;14.124;2023-12-07T06:47:03;8.52;;;3.80;;
49043;SDS011;34860;48.066;14.124;2023-12-07T06:49:53;10.52;;;3.67;;
49043;SDS011;34860;48.066;14.124;2023-12-07T06:52:42;5.40;;;2.95;;
49043;SDS011;34860;48.066;14.124;2023-12-07T06:55:31;9.70;;;3.83;;
49043;SDS011;34860;48.066;14.124;2023-12-07T06:58:24;8.65;;;4.40;;
49043;SDS011;34860;48.066;14.124;2023-12-07T07:01:13;34.67;;;13.75;;
49043;SDS011;34860;48.066;14.124;2023-12-07T07:04:04;8.73;;;4.25;;
49043;SDS011;34860;48.066;14.124;2023-12-07T07:06:52;6.63;;;2.97;;
49043;SDS011;34860;48.066;14.124;2023-12-07T07:09:41;5.68;;;2.90;;
49043;SDS011;34860;48.066;14.124;2023-12-07T07:12:30;9.90;;;3.92;;
49043;SDS011;34860;48.066;14.124;2023-12-07T07:15:20;7.05;;;3.13;;
49043;SDS011;34860;48.066;14.124;2023-12-07T07:18:12;5.95;;;3.35;;
49043;SDS011;34860;48.066;14.124;2023-12-07T07:21:00;7.55;;;3.65;;
49043;SDS011;34860;48.066;14.124;2023-12-07T07:23:54;15.13;;;4.55;;
49043;SDS011;34860;48.066;14.124;2023-12-07T07:26:44;7.22;;;3.17;;
49043;SDS011;34860;48.066;14.124;2023-12-07T07:29:32;7.10;;;3.83;;
49043;SDS011;34860;48.066;14.124;2023-12-07T07:32:21;7.85;;;3.72;;
49043;SDS011;34860;48.066;14.124;2023-12-07T07:35:10;5.82;;;3.22;;
49043;SDS011;34860;48.066;14.124;2023-12-07T07:37:59;5.28;;;2.85;;
49043;SDS011;34860;48.066;14.124;2023-12-07T07:40:47;4.80;;;2.53;;
49043;SDS011;34860;48.066;14.124;2023-12-07T07:43:35;9.25;;;4.10;;
49043;SDS011;34860;48.066;14.124;2023-12-07T07:46:24;13.27;;;5.13;;
49043;SDS011;34860;48.066;14.124;2023-12-07T07:49:14;6.47;;;2.92;;
49043;SDS011;34860;48.066;14.124;2023-12-07T07:52:02;7.63;;;3.17;;
49043;SDS011;34860;48.066;14.124;2023-12-07T07:54:51;8.85;;;4.13;;
49043;SDS011;34860;48.066;14.124;2023-12-07T07:57:39;12.02;;;3.70;;
49043;SDS011;34860;48.066;14.124;2023-12-07T08:00:29;4.28;;;2.53;;
49043;SDS011;34860;48.066;14.124;2023-12-07T08:03:19;6.25;;;3.55;;
49043;SDS011;34860;48.066;14.124;2023-12-07T08:06:09;9.32;;;3.08;;
49043;SDS011;34860;48.066;14.124;2023-12-07T08:08:57;4.00;;;2.47;;
49043;SDS011;34860;48.066;14.124;2023-12-07T08:11:45;11.15;;;4.32;;
49043;SDS011;34860;48.066;14.124;2023-12-07T08:14:36;6.75;;;3.40;;
49043;SDS011;34860;48.066;14.124;2023-12-07T08:17:26;9.05;;;3.97;;
49043;SDS011;34860;48.066;14.124;2023-12-07T08:20:14;8.02;;;3.28;;
49043;SDS011;34860;48.066;14.124;2023-12-07T08:23:07;10.93;;;3.42;;
49043;SDS011;34860;48.066;14.124;2023-12-07T08:25:56;5.10;;;3.08;;
49043;SDS011;34860;48.066;14.124;2023-12-07T08:28:46;6.20;;;3.33;;
49043;SDS011;34860;48.066;14.124;2023-12-07T08:31:34;9.25;;;4.07;;
49043;SDS011;34860;48.066;14.124;2023-12-07T08:34:25;9.73;;;4.47;;
49043;SDS011;34860;48.066;14.124;2023-12-07T08:37:17;7.45;;;2.95;;
49043;SDS011;34860;48.066;14.124;2023-12-07T08:40:10;7.45;;;3.38;;
49043;SDS011;34860;48.066;14.124;2023-12-07T08:43:01;11.20;;;3.50;;
49043;SDS011;34860;48.066;14.124;2023-12-07T08:45:53;6.88;;;2.97;;
49043;SDS011;34860;48.066;14.124;2023-12-07T08:48:43;8.98;;;3.80;;
49043;SDS011;34860;48.066;14.124;2023-12-07T08:51:31;6.15;;;3.03;;
49043;SDS011;34860;48.066;14.124;2023-12-07T08:54:20;9.18;;;3.63;;
49043;SDS011;34860;48.066;14.124;2023-12-07T08:57:09;7.68;;;3.67;;
49043;SDS011;34860;48.066;14.124;2023-12-07T08:59:57;5.07;;;2.70;;
49043;SDS011;34860;48.066;14.124;2023-12-07T09:02:47;7.78;;;2.65;;
49043;SDS011;34860;48.066;14.124;2023-12-07T09:05:35;7.47;;;2.40;;
49043;SDS011;34860;48.066;14.124;2023-12-07T09:08:23;7.57;;;3.80;;
49043;SDS011;34860;48.066;14.124;2023-12-07T09:11:12;5.90;;;3.17;;
49043;SDS011;34860;48.066;14.124;2023-12-07T09:14:01;4.30;;;2.40;;
49043;SDS011;34860;48.066;14.124;2023-12-07T09:16:50;6.70;;;3.08;;
49043;SDS011;34860;48.066;14.124;2023-12-07T09:19:38;9.70;;;3.45;;
49043;SDS011;34860;48.066;14.124;2023-12-07T09:22:27;6.30;;;2.95;;
49043;SDS011;34860;48.066;14.124;2023-12-07T09:25:17;5.63;;;3.30;;
49043;SDS011;34860;48.066;14.124;2023-12-07T09:28:05;9.48;;;4.10;;
49043;SDS011;34860;48.066;14.124;2023-12-07T09:30:56;6.13;;;2.58;;
49043;SDS011;34860;48.066;14.124;2023-12-07T09:33:44;5.05;;;2.60;;
49043;SDS011;34860;48.066;14.124;2023-12-07T09:36:34;9.10;;;3.55;;
49043;SDS011;34860;48.066;14.124;2023-12-07T09:39:22;9.50;;;4.35;;
49043;SDS011;34860;48.066;14.124;2023-12-07T09:42:11;5.95;;;3.95;;
49043;SDS011;34860;48.066;14.124;2023-12-07T09:45:01;9.00;;;3.95;;
49043;SDS011;34860;48.066;14.124;2023-12-07T09:47:51;12.77;;;4.20;;
49043;SDS011;34860;48.066;14.124;2023-12-07T09:50:40;8.55;;;3.72;;
49043;SDS011;34860;48.066;14.124;2023-12-07T09:53:38;7.55;;;3.53;;
49043;SDS011;34860;48.066;14.124;2023-12-07T09:56:30;7.80;;;3.90;;
49043;SDS011;34860;48.066;14.124;2023-12-07T09:59:18;8.98;;;3.28;;
49043;SDS011;34860;48.066;14.124;2023-12-07T10:02:08;10.02;;;3.80;;
49043;SDS011;34860;48.066;14.124;2023-12-07T10:05:07;11.40;;;4.57;;
49043;SDS011;34860;48.066;14.124;2023-12-07T10:07:57;7.25;;;3.17;;
49043;SDS011;34860;48.066;14.124;2023-12-07T10:10:49;9.75;;;3.67;;
49043;SDS011;34860;48.066;14.124;2023-12-07T10:13:49;5.50;;;3.35;;
49043;SDS011;34860;48.066;14.124;2023-12-07T10:16:37;7.55;;;3.45;;
49043;SDS011;34860;48.066;14.124;2023-12-07T10:19:27;8.30;;;4.00;;
49043;SDS011;34860;48.066;14.124;2023-12-07T10:22:18;8.48;;;3.90;;
49043;SDS011;34860;48.066;14.124;2023-12-07T10:25:07;6.68;;;3.75;;
49043;SDS011;34860;48.066;14.124;2023-12-07T10:28:00;7.30;;;3.05;;
49043;SDS011;34860;48.066;14.124;2023-12-07T10:30:53;7.78;;;3.42;;
49043;SDS011;34860;48.066;14.124;2023-12-07T10:33:41;12.25;;;5.30;;
49043;SDS011;34860;48.066;14.124;2023-12-07T10:36:34;7.65;;;3.55;;
49043;SDS011;34860;48.066;14.124;2023-12-07T10:39:24;9.55;;;4.60;;
49043;SDS011;34860;48.066;14.124;2023-12-07T10:42:14;5.18;;;2.67;;
49043;SDS011;34860;48.066;14.124;2023-12-07T10:45:07;7.90;;;3.97;;
49043;SDS011;34860;48.066;14.124;2023-12-07T10:48:00;7.22;;;3.78;;
49043;SDS011;34860;48.066;14.124;2023-12-07T10:50:53;7.65;;;3.70;;
49043;SDS011;34860;48.066;14.124;2023-12-07T10:53:47;7.45;;;3.38;;
49043;SDS011;34860;48.066;14.124;2023-12-07T10:56:43;8.35;;;4.30;;
49043;SDS011;34860;48.066;14.124;2023-12-07T10:59:32;7.45;;;3.08;;
49043;SDS011;34860;48.066;14.124;2023-12-07T11:02:22;8.02;;;3.08;;
49043;SDS011;34860;48.066;14.124;2023-12-07T11:05:13;11.10;;;3.72;;
49043;SDS011;34860;48.066;14.124;2023-12-07T11:08:02;8.80;;;3.17;;
49043;SDS011;34860;48.066;14.124;2023-12-07T11:10:58;8.73;;;3.97;;
49043;SDS011;34860;48.066;14.124;2023-12-07T11:13:56;8.20;;;3.70;;
49043;SDS011;34860;48.066;14.124;2023-12-07T11:16:49;8.98;;;4.00;;
49043;SDS011;34860;48.066;14.124;2023-12-07T11:19:43;8.05;;;3.78;;
49043;SDS011;34860;48.066;14.124;2023-12-07T11:22:32;8.52;;;3.58;;
49043;SDS011;34860;48.066;14.124;2023-12-07T11:25:20;8.15;;;3.30;;
49043;SDS011;34860;48.066;14.124;2023-12-07T11:28:11;7.13;;;3.13;;
49043;SDS011;34860;48.066;14.124;2023-12-07T11:31:02;13.88;;;4.63;;
49043;SDS011;34860;48.066;14.124;2023-12-07T11:33:51;7.43;;;3.10;;
49043;SDS011;34860;48.066;14.124;2023-12-07T11:36:42;9.20;;;4.05;;
49043;SDS011;34860;48.066;14.124;2023-12-07T11:39:34;6.47;;;3.25;;
49043;SDS011;34860;48.066;14.124;2023-12-07T11:42:22;4.82;;;2.28;;
49043;SDS011;34860;48.066;14.124;2023-12-07T11:45:15;7.03;;;2.25;;
49043;SDS011;34860;48.066;14.124;2023-12-07T11:48:11;6.75;;;3.22;;
49043;SDS011;34860;48.066;14.124;2023-12-07T11:51:02;6.80;;;2.83;;
49043;SDS011;34860;48.066;14.124;2023-12-07T11:53:53;3.28;;;2.30;;
49043;SDS011;34860;48.066;14.124;2023-12-07T11:56:41;5.88;;;2.63;;
49043;SDS011;34860;48.066;14.124;2023-12-07T11:59:29;6.43;;;3.15;;
49043;SDS011;34860;48.066;14.124;2023-12-07T12:02:19;7.57;;;3.15;;
49043;SDS011;34860;48.066;14.124;2023-12-07T12:05:10;9.98;;;3.45;;
49043;SDS011;34860;48.066;14.124;2023-12-07T12:08:01;9.63;;;4.03;;
49043;SDS011;34860;48.066;14.124;2023-12-07T12:10:49;9.25;;;2.88;;
49043;SDS011;34860;48.066;14.124;2023-12-07T12:13:40;11.40;;;2.72;;
49043;SDS011;34860;48.066;14.124;2023-12-07T12:16:29;10.18;;;4.25;;
49043;SDS011;34860;48.066;14.124;2023-12-07T12:19:17;3.47;;;2.30;;
49043;SDS011;34860;48.066;14.124;2023-12-07T12:22:09;9.20;;;3.67;;
49043;SDS011;34860;48.066;14.124;2023-12-07T12:25:00;7.13;;;3.15;;
49043;SDS011;34860;48.066;14.124;2023-12-07T12:27:49;3.58;;;2.08;;
49043;SDS011;34860;48.066;14.124;2023-12-07T12:30:40;7.10;;;3.00;;
49043;SDS011;34860;48.066;14.124;2023-12-07T12:33:36;5.70;;;3.00;;
49043;SDS011;34860;48.066;14.124;2023-12-07T12:36:25;6.47;;;3.03;;
49043;SDS011;34860;48.066;14.124;2023-12-07T12:39:20;9.75;;;3.45;;
49043;SDS011;34860;48.066;14.124;2023-12-07T12:42:17;5.85;;;2.92;;
49043;SDS011;34860;48.066;14.124;2023-12-07T12:45:07;5.35;;;3.30;;
49043;SDS011;34860;48.066;14.124;2023-12-07T12:47:59;12.40;;;3.17;;
49043;SDS011;34860;48.066;14.124;2023-12-07T12:50:49;5.95;;;2.70;;
49043;SDS011;34860;48.066;14.124;2023-12-07T12:53:40;6.13;;;2.50;;
49043;SDS011;34860;48.066;14.124;2023-12-07T12:56:31;6.43;;;2.25;;
49043;SDS011;34860;48.066;14.124;2023-12-07T12:59:19;7.93;;;3.53;;
49043;SDS011;34860;48.066;14.124;2023-12-07T13:02:08;6.03;;;3.28;;
49043;SDS011;34860;48.066;14.124;2023-12-07T13:04:59;4.82;;;2.88;;
49043;SDS011;34860;48.066;14.124;2023-12-07T13:07:47;5.88;;;2.95;;
49043;SDS011;34860;48.066;14.124;2023-12-07T13:10:40;10.23;;;3.17;;
49043;SDS011;34860;48.066;14.124;2023-12-07T13:13:30;7.15;;;3.45;;
49043;SDS011;34860;48.066;14.124;2023-12-07T13:16:18;5.85;;;2.75;;
49043;SDS011;34860;48.066;14.124;2023-12-07T13:19:07;16.13;;;4.82;;
49043;SDS011;34860;48.066;14.124;2023-12-07T13:21:57;8.30;;;3.15;;
49043;SDS011;34860;48.066;14.124;2023-12-07T13:24:47;7.03;;;2.60;;
49043;SDS011;34860;48.066;14.124;2023-12-07T13:27:36;7.97;;;3.40;;
49043;SDS011;34860;48.066;14.124;2023-12-07T13:30:26;6.00;;;2.70;;
49043;SDS011;34860;48.066;14.124;2023-12-07T13:33:16;6.50;;;3.10;;
49043;SDS011;34860;48.066;14.124;2023-12-07T13:36:06;7.82;;;3.35;;
49043;SDS011;34860;48.066;14.124;2023-12-07T13:38:58;4.88;;;3.03;;
49043;SDS011;34860;48.066;14.124;2023-12-07T13:41:48;9.55;;;4.05;;
49043;SDS011;34860;48.066;14.124;2023-12-07T13:44:38;6.30;;;2.80;;
49043;SDS011;34860;48.066;14.124;2023-12-07T13:47:29;10.25;;;3.72;;
49043;SDS011;34860;48.066;14.124;2023-12-07T13:50:20;7.25;;;3.53;;
49043;SDS011;34860;48.066;14.124;2023-12-07T13:53:09;14.52;;;2.78;;
49043;SDS011;34860;48.066;14.124;2023-12-07T13:56:00;6.78;;;3.10;;
49043;SDS011;34860;48.066;14.124;2023-12-07T13:58:50;10.15;;;3.45;;
49043;SDS011;34860;48.066;14.124;2023-12-07T14:01:38;9.20;;;3.60;;
49043;SDS011;34860;48.066;14.124;2023-12-07T14:04:29;9.43;;;3.60;;
49043;SDS011;34860;48.066;14.124;2023-12-07T14:07:19;6.97;;;3.53;;
49043;SDS011;34860;48.066;14.124;2023-12-07T14:10:18;8.57;;;3.67;;
49043;SDS011;34860;48.066;14.124;2023-12-07T14:13:07;7.80;;;4.05;;
49043;SDS011;34860;48.066;14.124;2023-12-07T14:15:59;9.75;;;4.22;;
49043;SDS011;34860;48.066;14.124;2023-12-07T14:18:48;5.78;;;3.13;;
49043;SDS011;34860;48.066;14.124;2023-12-07T14:21:46;10.10;;;3.97;;
49043;SDS011;34860;48.066;14.124;2023-12-07T14:24:37;11.15;;;4.03;;
49043;SDS011;34860;48.066;14.124;2023-12-07T14:27:25;8.40;;;4.25;;
49043;SDS011;34860;48.066;14.124;2023-12-07T14:30:14;11.05;;;5.75;;
49043;SDS011;34860;48.066;14.124;2023-12-07T14:33:04;12.32;;;5.18;;
49043;SDS011;34860;48.066;14.124;2023-12-07T14:35:52;7.30;;;4.38;;
49043;SDS011;34860;48.066;14.124;2023-12-07T14:38:42;12.93;;;5.90;;
49043;SDS011;34860;48.066;14.124;2023-12-07T14:41:33;11.25;;;4.60;;
49043;SDS011;34860;48.066;14.124;2023-12-07T14:44:22;10.23;;;5.10;;
49043;SDS011;34860;48.066;14.124;2023-12-07T14:47:14;10.95;;;5.40;;
49043;SDS011;34860;48.066;14.124;2023-12-07T14:50:02;13.18;;;5.47;;
49043;SDS011;34860;48.066;14.124;2023-12-07T14:52:52;16.85;;;7.53;;
49043;SDS011;34860;48.066;14.124;2023-12-07T14:55:41;15.60;;;8.48;;
49043;SDS011;34860;48.066;14.124;2023-12-07T14:58:29;13.45;;;6.55;;
49043;SDS011;34860;48.066;14.124;2023-12-07T15:01:19;15.15;;;7.72;;
49043;SDS011;34860;48.066;14.124;2023-12-07T15:04:08;13.73;;;7.32;;
49043;SDS011;34860;48.066;14.124;2023-12-07T15:07:03;14.23;;;6.75;;
49043;SDS011;34860;48.066;14.124;2023-12-07T15:09:53;13.98;;;6.70;;
49043;SDS011;34860;48.066;14.124;2023-12-07T15:12:43;11.13;;;5.63;;
49043;SDS011;34860;48.066;14.124;2023-12-07T15:15:31;16.48;;;6.38;;
49043;SDS011;34860;48.066;14.124;2023-12-07T15:18:19;10.40;;;5.03;;
49043;SDS011;34860;48.066;14.124;2023-12-07T15:21:11;12.05;;;5.72;;
49043;SDS011;34860;48.066;14.124;2023-12-07T15:24:00;11.48;;;6.22;;
49043;SDS011;34860;48.066;14.124;2023-12-07T15:26:52;16.65;;;5.82;;
49043;SDS011;34860;48.066;14.124;2023-12-07T15:29:41;9.23;;;4.85;;
49043;SDS011;34860;48.066;14.124;2023-12-07T15:32:30;8.45;;;4.57;;
49043;SDS011;34860;48.066;14.124;2023-12-07T15:35:21;12.20;;;5.10;;
49043;SDS011;34860;48.066;14.124;2023-12-07T15:38:09;14.27;;;6.75;;
49043;SDS011;34860;48.066;14.124;2023-12-07T15:40:59;14.15;;;6.65;;
49043;SDS011;34860;48.066;14.124;2023-12-07T15:43:51;17.45;;;8.18;;
49043;SDS011;34860;48.066;14.124;2023-12-07T15:46:45;13.70;;;6.63;;
49043;SDS011;34860;48.066;14.124;2023-12-07T15:49:33;12.65;;;6.63;;
49043;SDS011;34860;48.066;14.124;2023-12-07T15:52:22;18.67;;;7.60;;
49043;SDS011;34860;48.066;14.124;2023-12-07T15:55:14;17.10;;;6.45;;
49043;SDS011;34860;48.066;14.124;2023-12-07T15:58:05;12.13;;;6.05;;
49043;SDS011;34860;48.066;14.124;2023-12-07T16:00:54;12.93;;;6.82;;
49043;SDS011;34860;48.066;14.124;2023-12-07T16:03:43;17.88;;;5.13;;
49043;SDS011;34860;48.066;14.124;2023-12-07T16:06:34;19.23;;;6.32;;
49043;SDS011;34860;48.066;14.124;2023-12-07T16:09:23;15.27;;;6.47;;
49043;SDS011;34860;48.066;14.124;2023-12-07T16:12:15;17.55;;;6.65;;
49043;SDS011;34860;48.066;14.124;2023-12-07T16:15:04;13.23;;;6.03;;
49043;SDS011;34860;48.066;14.124;2023-12-07T16:17:53;14.98;;;7.63;;
49043;SDS011;34860;48.066;14.124;2023-12-07T16:20:43;16.10;;;7.45;;
49043;SDS011;34860;48.066;14.124;2023-12-07T16:23:31;13.80;;;6.80;;
49043;SDS011;34860;48.066;14.124;2023-12-07T16:26:19;17.13;;;7.95;;
49043;SDS011;34860;48.066;14.124;2023-12-07T16:29:07;14.52;;;6.55;;
49043;SDS011;34860;48.066;14.124;2023-12-07T16:31:58;15.13;;;6.63;;
49043;SDS011;34860;48.066;14.124;2023-12-07T16:34:46;19.05;;;7.07;;
49043;SDS011;34860;48.066;14.124;2023-12-07T16:37:36;16.63;;;7.55;;
49043;SDS011;34860;48.066;14.124;2023-12-07T16:40:25;20.90;;;8.50;;
49043;SDS011;34860;48.066;14.124;2023-12-07T16:43:13;20.55;;;8.02;;
49043;SDS011;34860;48.066;14.124;2023-12-07T16:46:01;17.70;;;8.32;;
49043;SDS011;34860;48.066;14.124;2023-12-07T16:48:50;17.92;;;7.25;;